createdAt,value
2023-04-28T00:00:34.343Z,62.2143
2023-04-28T00:01:34.380Z,62.0714
2023-04-28T00:02:34.623Z,62.1429
2023-04-28T00:03:34.629Z,62.2857
2023-04-28T00:04:34.717Z,62.2857
2023-04-28T00:05:34.560Z,62.3571
2023-04-28T00:06:34.578Z,62.5
2023-04-28T00:07:34.616Z,62.5
2023-04-28T00:08:34.667Z,62.4286
2023-04-28T00:09:34.703Z,62.3571
2023-04-28T00:10:34.761Z,62.2857
2023-04-28T00:11:34.778Z,62.3571
2023-04-28T00:12:34.821Z,62.3571
2023-04-28T00:13:34.860Z,62.2857
2023-04-28T00:14:34.886Z,62.2857
2023-04-28T00:15:34.931Z,62.2143
2023-04-28T00:16:35.001Z,62.1429
2023-04-28T00:17:35.131Z,61.9286
2023-04-28T00:18:35.048Z,61.7857
2023-04-28T00:19:35.095Z,61.6429
2023-04-28T00:20:35.139Z,61.4286
2023-04-28T00:21:35.178Z,61.4286
2023-04-28T00:22:35.212Z,61.4286
2023-04-28T00:23:35.254Z,61.5714
2023-04-28T00:24:35.284Z,61.5
2023-04-28T00:25:35.330Z,61.4286
2023-04-28T00:26:35.378Z,61.4286
2023-04-28T00:27:35.420Z,61.5
2023-04-28T00:28:35.444Z,61.5714
2023-04-28T00:29:35.494Z,61.7143
2023-04-28T00:30:35.523Z,61.7143
2023-04-28T00:31:35.655Z,61.8571
2023-04-28T00:32:35.627Z,62
2023-04-28T00:33:35.644Z,61.9286
2023-04-28T00:34:35.671Z,62
2023-04-28T00:35:35.714Z,62.0714
2023-04-28T00:36:35.756Z,61.9286
2023-04-28T00:37:35.798Z,62.2143
2023-04-28T00:38:35.841Z,62.2143
2023-04-28T00:39:35.881Z,62.1429
2023-04-28T00:40:35.921Z,62
2023-04-28T00:41:35.967Z,62.2143
2023-04-28T00:42:36.003Z,62.3571
2023-04-28T00:43:36.032Z,62.2857
2023-04-28T00:44:36.084Z,62.2143
2023-04-28T00:45:36.146Z,62.5
2023-04-28T00:46:36.145Z,62.8571
2023-04-28T00:47:36.228Z,63
2023-04-28T00:48:36.230Z,63.0714
2023-04-28T00:49:36.266Z,63.1429
2023-04-28T00:50:36.310Z,63.1429
2023-04-28T00:51:36.348Z,63.1429
2023-04-28T00:52:36.385Z,63.2143
2023-04-28T00:53:36.424Z,63.2857
2023-04-28T00:54:36.460Z,63.2143
2023-04-28T00:55:36.496Z,63.2143
2023-04-28T00:56:36.549Z,63.2143
2023-04-28T00:57:36.601Z,63.0714
2023-04-28T00:58:36.633Z,63.0714
2023-04-28T00:59:36.674Z,63.1429
2023-04-28T01:00:36.706Z,63.0714
2023-04-28T01:01:36.808Z,62.9286
2023-04-28T01:02:36.952Z,62.9286
2023-04-28T01:03:37.044Z,63
2023-04-28T01:04:37.170Z,63.0714
2023-04-28T01:05:36.926Z,63.1429
2023-04-28T01:06:36.969Z,63
2023-04-28T01:07:37.001Z,63
2023-04-28T01:08:37.035Z,63
2023-04-28T01:09:37.078Z,62.9286
2023-04-28T01:10:37.119Z,63.0714
2023-04-28T01:11:37.149Z,63.2857
2023-04-28T01:12:37.188Z,63.5
2023-04-28T01:13:37.247Z,63.5
2023-04-28T01:14:37.303Z,63.6429
2023-04-28T01:15:37.330Z,63.7857
2023-04-28T01:16:37.397Z,63.7857
2023-04-28T01:17:37.464Z,63.7143
2023-04-28T01:18:37.440Z,63.6429
2023-04-28T01:19:37.476Z,63.5
2023-04-28T01:20:37.550Z,63.5714
2023-04-28T01:21:37.553Z,63.5
2023-04-28T01:22:37.584Z,63.5
2023-04-28T01:23:37.656Z,63.4286
2023-04-28T01:24:37.673Z,63.5714
2023-04-28T01:25:37.711Z,63.6429
2023-04-28T01:26:37.749Z,63.6429
2023-04-28T01:27:37.787Z,63.4286
2023-04-28T01:28:37.830Z,63.2857
2023-04-28T01:29:37.865Z,63.3571
2023-04-28T01:30:37.919Z,63.2143
2023-04-28T01:31:37.985Z,63.2143
2023-04-28T01:32:38.024Z,63.3571
2023-04-28T01:33:38.044Z,63.5
2023-04-28T01:34:38.085Z,63.6429
2023-04-28T01:35:38.116Z,63.7143
2023-04-28T01:36:38.160Z,63.6429
2023-04-28T01:37:38.212Z,63.7143
2023-04-28T01:38:38.237Z,63.7857
2023-04-28T01:39:38.277Z,63.7143
2023-04-28T01:40:38.307Z,63.7143
2023-04-28T01:41:38.354Z,63.7143
2023-04-28T01:42:38.393Z,63.6429
2023-04-28T01:43:38.429Z,63.6429
2023-04-28T01:44:38.490Z,63.5714
2023-04-28T01:45:38.515Z,63.5
2023-04-28T01:46:38.620Z,63.5
2023-04-28T01:47:38.643Z,63.5714
2023-04-28T01:48:38.646Z,63.2857
2023-04-28T01:49:38.705Z,63.2857
2023-04-28T01:50:38.719Z,63.2143
2023-04-28T01:51:38.775Z,63.1429
2023-04-28T01:52:38.798Z,63.0714
2023-04-28T01:53:38.832Z,63.1429
2023-04-28T01:54:38.889Z,63.0714
2023-04-28T01:55:38.930Z,62.7857
2023-04-28T01:56:38.967Z,62.6429
2023-04-28T01:57:39.004Z,62.7143
2023-04-28T01:58:39.034Z,62.7143
2023-04-28T01:59:39.086Z,62.5
2023-04-28T02:00:39.126Z,62.4286
2023-04-28T02:01:39.177Z,62.4286
2023-04-28T02:02:39.252Z,62.4286
2023-04-28T02:03:39.369Z,62.6429
2023-04-28T02:04:39.359Z,62.6429
2023-04-28T02:05:39.312Z,62.7857
2023-04-28T02:06:39.353Z,63
2023-04-28T02:07:39.389Z,63.0714
2023-04-28T02:08:39.434Z,62.9286
2023-04-28T02:09:39.493Z,62.8571
2023-04-28T02:10:39.536Z,62.7143
2023-04-28T02:11:39.569Z,62.7857
2023-04-28T02:12:39.591Z,62.7857
2023-04-28T02:13:39.642Z,62.7857
2023-04-28T02:14:39.657Z,62.6429
2023-04-28T02:15:39.716Z,62.5
2023-04-28T02:16:39.749Z,62.3571
2023-04-28T02:17:39.812Z,62.3571
2023-04-28T02:18:39.818Z,62.4286
2023-04-28T02:19:39.866Z,62.3571
2023-04-28T02:20:39.906Z,62.7143
2023-04-28T02:21:39.978Z,62.7857
2023-04-28T02:22:39.983Z,62.9286
2023-04-28T02:23:40.050Z,63
2023-04-28T02:24:40.062Z,63.0714
2023-04-28T02:25:40.114Z,63.2143
2023-04-28T02:26:40.183Z,63.4286
2023-04-28T02:27:40.192Z,63.5714
2023-04-28T02:28:40.233Z,63.7857
2023-04-28T02:29:40.271Z,63.7857
2023-04-28T02:30:40.314Z,63.7143
2023-04-28T02:31:40.387Z,64
2023-04-28T02:32:40.452Z,64
2023-04-28T02:33:40.434Z,64.2143
2023-04-28T02:34:40.472Z,64.2143
2023-04-28T02:35:40.515Z,64.1429
2023-04-28T02:36:40.550Z,64
2023-04-28T02:37:40.589Z,63.9286
2023-04-28T02:38:40.632Z,63.8571
2023-04-28T02:39:40.667Z,63.8571
2023-04-28T02:40:40.710Z,63.7857
2023-04-28T02:41:40.746Z,63.6429
2023-04-28T02:42:40.789Z,63.7143
2023-04-28T02:43:40.824Z,63.5
2023-04-28T02:44:40.861Z,63.2857
2023-04-28T02:45:40.905Z,63.0714
2023-04-28T02:46:40.979Z,62.8571
2023-04-28T02:47:40.993Z,62.8571
2023-04-28T02:48:41.015Z,63.0714
2023-04-28T02:49:41.062Z,63.2143
2023-04-28T02:50:41.109Z,63.2143
2023-04-28T02:51:41.142Z,63.2857
2023-04-28T02:52:41.176Z,63.2143
2023-04-28T02:53:41.247Z,63.2143
2023-04-28T02:54:41.266Z,63.2857
2023-04-28T02:55:41.298Z,63.5
2023-04-28T02:56:41.335Z,63.5
2023-04-28T02:57:41.362Z,63.5
2023-04-28T02:58:41.398Z,63.5714
2023-04-28T02:59:41.435Z,63.6429
2023-04-28T03:00:41.492Z,63.7143
2023-04-28T03:01:41.660Z,63.7857
2023-04-28T03:02:41.772Z,63.8571
2023-04-28T03:03:41.702Z,64.0714
2023-04-28T03:04:41.695Z,64.2143
2023-04-28T03:05:41.675Z,64.5
2023-04-28T03:06:41.709Z,64.7143
2023-04-28T03:07:41.757Z,64.8571
2023-04-28T03:08:41.801Z,64.9286
2023-04-28T03:09:42.379Z,64.9286
2023-04-28T03:10:41.871Z,65
2023-04-28T03:11:41.924Z,64.9286
2023-04-28T03:12:41.959Z,64.9286
2023-04-28T03:13:42.036Z,64.7857
2023-04-28T03:14:42.037Z,64.7857
2023-04-28T03:15:42.068Z,64.7143
2023-04-28T03:16:42.276Z,64.6429
2023-04-28T03:17:42.283Z,64.5
2023-04-28T03:18:42.196Z,64.3571
2023-04-28T03:19:42.247Z,64.2857
2023-04-28T03:20:42.270Z,64.2143
2023-04-28T03:21:42.310Z,64.3571
2023-04-28T03:22:42.377Z,64.6429
2023-04-28T03:23:42.390Z,64.7143
2023-04-28T03:24:42.446Z,64.7143
2023-04-28T03:25:42.462Z,64.7857
2023-04-28T03:26:42.497Z,64.9286
2023-04-28T03:27:42.544Z,65
2023-04-28T03:28:42.584Z,65
2023-04-28T03:29:42.626Z,65.1429
2023-04-28T03:30:42.670Z,65.1429
2023-04-28T03:31:42.760Z,65.0714
2023-04-28T03:32:42.783Z,65
2023-04-28T03:33:42.792Z,64.9286
2023-04-28T03:34:42.842Z,64.7857
2023-04-28T03:35:42.887Z,64.6429
2023-04-28T03:36:42.938Z,64.5
2023-04-28T03:37:42.955Z,64.3571
2023-04-28T03:38:42.998Z,64.3571
2023-04-28T03:39:43.047Z,64.2857
2023-04-28T03:40:43.111Z,64.2857
2023-04-28T03:41:43.138Z,64.3571
2023-04-28T03:42:43.172Z,64.4286
2023-04-28T03:43:43.208Z,64.5
2023-04-28T03:44:43.244Z,64.4286
2023-04-28T03:45:43.382Z,64.5
2023-04-28T03:46:43.315Z,64.4286
2023-04-28T03:47:43.430Z,64.4286
2023-04-28T03:48:43.393Z,64.5
2023-04-28T03:49:43.445Z,64.5
2023-04-28T03:50:43.485Z,64.5
2023-04-28T03:51:43.524Z,64.3571
2023-04-28T03:52:43.562Z,64.3571
2023-04-28T03:53:43.616Z,64.3571
2023-04-28T03:54:43.663Z,64.2143
2023-04-28T03:55:43.694Z,64.2143
2023-04-28T03:56:43.736Z,64.2857
2023-04-28T03:57:43.779Z,64.3571
2023-04-28T03:58:43.821Z,64.2857
2023-04-28T03:59:43.858Z,64.2857
2023-04-28T04:00:43.895Z,64.2857
2023-04-28T04:01:43.933Z,64.3571
2023-04-28T04:02:44.132Z,64.3571
2023-04-28T04:03:44.254Z,64.5
2023-04-28T04:04:44.165Z,64.3571
2023-04-28T04:05:44.271Z,64.3571
2023-04-28T04:06:44.142Z,64.1429
2023-04-28T04:07:44.187Z,63.7143
2023-04-28T04:08:44.257Z,63.2143
2023-04-28T04:09:44.269Z,63
2023-04-28T04:10:44.298Z,62.6429
2023-04-28T04:11:44.348Z,62.2857
2023-04-28T04:12:44.377Z,61.9286
2023-04-28T04:13:44.435Z,61.5714
2023-04-28T04:14:44.452Z,61.4286
2023-04-28T04:15:44.552Z,61.0714
2023-04-28T04:16:44.532Z,61.0714
2023-04-28T04:17:44.624Z,61.1429
2023-04-28T04:18:44.622Z,61.2143
2023-04-28T04:19:44.670Z,61
2023-04-28T04:20:44.715Z,61
2023-04-28T04:21:44.758Z,60.4286
2023-04-28T04:22:44.805Z,59.7143
2023-04-28T04:23:44.830Z,59.3571
2023-04-28T04:24:44.873Z,59.6429
2023-04-28T04:25:44.909Z,59.6429
2023-04-28T04:26:44.959Z,59.6429
2023-04-28T04:27:45.008Z,59.3571
2023-04-28T04:28:45.051Z,59.3571
2023-04-28T04:29:45.074Z,59.4286
2023-04-28T04:30:45.119Z,58.8571
2023-04-28T04:31:45.228Z,58.7143
2023-04-28T04:32:45.308Z,58.4286
2023-04-28T04:33:45.233Z,58.2857
2023-04-28T04:34:45.278Z,58.1429
2023-04-28T04:35:45.315Z,58.3571
2023-04-28T04:36:45.344Z,58.1429
2023-04-28T04:37:45.396Z,58.3571
2023-04-28T04:38:45.427Z,58.2143
2023-04-28T04:39:45.488Z,58.5714
2023-04-28T04:40:45.511Z,58.9286
2023-04-28T04:41:45.543Z,58.8571
2023-04-28T04:42:45.577Z,58.5
2023-04-28T04:43:45.629Z,58.5714
2023-04-28T04:44:45.663Z,58.7857
2023-04-28T04:45:45.714Z,58.2857
2023-04-28T04:46:45.798Z,58.2857
2023-04-28T04:47:45.836Z,58.0714
2023-04-28T04:48:45.813Z,57.8571
2023-04-28T04:49:45.847Z,57.5
2023-04-28T04:50:45.887Z,57.3571
2023-04-28T04:51:45.930Z,57.7143
2023-04-28T04:52:45.970Z,57.7143
2023-04-28T04:53:46.004Z,57.9286
2023-04-28T04:54:46.045Z,57.2857
2023-04-28T04:55:46.077Z,57.5714
2023-04-28T04:56:46.116Z,57.1429
2023-04-28T04:57:46.160Z,57
2023-04-28T04:58:46.214Z,57.2143
2023-04-28T04:59:46.236Z,57.4286
2023-04-28T05:00:46.253Z,57.1429
2023-04-28T05:01:46.336Z,56.9286
2023-04-28T05:02:46.476Z,56.8571
2023-04-28T05:03:46.495Z,57
2023-04-28T05:04:46.507Z,57
2023-04-28T05:05:46.544Z,57
2023-04-28T05:06:46.492Z,57.3571
2023-04-28T05:07:46.519Z,57.0714
2023-04-28T05:08:46.576Z,56.9286
2023-04-28T05:09:46.594Z,56.7857
2023-04-28T05:10:46.629Z,56.6429
2023-04-28T05:11:46.669Z,56.6429
2023-04-28T05:12:48.958Z,56.4286
2023-04-28T05:13:46.747Z,56.6429
2023-04-28T05:14:46.781Z,56.7143
2023-04-28T05:15:46.819Z,56.4286
2023-04-28T05:16:46.881Z,56.3571
2023-04-28T05:17:46.912Z,55.7857
2023-04-28T05:18:46.936Z,55.9286
2023-04-28T05:19:46.965Z,56
2023-04-28T05:20:47.019Z,56.0714
2023-04-28T05:21:47.052Z,55.6429
2023-04-28T05:22:47.104Z,55.9286
2023-04-28T05:23:47.128Z,55.7143
2023-04-28T05:24:47.174Z,55.0714
2023-04-28T05:25:47.214Z,54.7857
2023-04-28T05:26:47.250Z,55
2023-04-28T05:27:47.301Z,54.2143
2023-04-28T05:28:47.327Z,54.1429
2023-04-28T05:29:47.404Z,54.6429
2023-04-28T05:30:47.397Z,54.9286
2023-04-28T05:31:47.473Z,54.3571
2023-04-28T05:32:47.516Z,54.4286
2023-04-28T05:33:47.511Z,53.7143
2023-04-28T05:34:47.579Z,53.3571
2023-04-28T05:35:47.600Z,53.0714
2023-04-28T05:36:47.658Z,53.5
2023-04-28T05:37:47.681Z,53.1429
2023-04-28T05:38:47.735Z,52.7143
2023-04-28T05:39:47.756Z,53.4286
2023-04-28T05:40:47.802Z,53.0714
2023-04-28T05:41:47.831Z,53.0714
2023-04-28T05:42:47.872Z,52.2857
2023-04-28T05:43:47.908Z,51.7143
2023-04-28T05:44:47.950Z,51.7143
2023-04-28T05:45:48.010Z,51.7143
2023-04-28T05:46:48.065Z,50
2023-04-28T05:47:48.077Z,49.6429
2023-04-28T05:48:48.115Z,49.5714
2023-04-28T05:49:48.146Z,49.3571
2023-04-28T05:50:48.202Z,49.5714
2023-04-28T05:51:48.224Z,48.8571
2023-04-28T05:52:48.266Z,48.7143
2023-04-28T05:53:48.306Z,47.2143
2023-04-28T05:54:48.339Z,47
2023-04-28T05:55:48.380Z,46.9286
2023-04-28T05:56:48.422Z,45.9286
2023-04-28T05:57:53.038Z,45.9286
2023-04-28T05:58:48.499Z,45.1429
2023-04-28T05:59:48.537Z,45.0714
2023-04-28T06:00:48.584Z,45.2143
2023-04-28T06:01:48.611Z,44.1429
2023-04-28T06:02:48.834Z,43.9286
2023-04-28T06:03:48.942Z,44.6429
2023-04-28T06:04:49.076Z,44.1429
2023-04-28T06:05:48.823Z,43.9286
2023-04-28T06:06:48.823Z,44.3571
2023-04-28T06:07:50.073Z,44.5714
2023-04-28T06:08:48.888Z,43.2143
2023-04-28T06:09:48.926Z,43.0714
2023-04-28T06:10:48.969Z,42.5
2023-04-28T06:11:48.998Z,42.7857
2023-04-28T06:12:49.053Z,42.3571
2023-04-28T06:13:49.085Z,41.6429
2023-04-28T06:14:49.114Z,41.6429
2023-04-28T06:15:49.197Z,41.6429
2023-04-28T06:16:49.198Z,42.2857
2023-04-28T06:17:49.287Z,42.5
2023-04-28T06:18:49.871Z,42.9286
2023-04-28T06:19:49.315Z,42
2023-04-28T06:20:49.355Z,42.4286
2023-04-28T06:21:49.404Z,43.1429
2023-04-28T06:22:49.437Z,42.9286
2023-04-28T06:23:49.521Z,43.6429
2023-04-28T06:24:49.505Z,42.3571
2023-04-28T06:25:49.548Z,43.0714
2023-04-28T06:26:49.584Z,42.5
2023-04-28T06:27:49.621Z,42.5
2023-04-28T06:28:49.668Z,42.5
2023-04-28T06:29:49.707Z,42.5
2023-04-28T06:30:49.745Z,42.7143
2023-04-28T06:31:49.783Z,42.6429
2023-04-28T06:32:49.867Z,42.7143
2023-04-28T06:33:49.869Z,43.4286
2023-04-28T06:34:49.880Z,43
2023-04-28T06:35:49.924Z,42.4286
2023-04-28T06:36:49.956Z,42.7857
2023-04-28T06:37:50.003Z,42.6429
2023-04-28T06:38:50.044Z,42.5
2023-04-28T06:39:50.061Z,41.7143
2023-04-28T06:40:50.120Z,41.4286
2023-04-28T06:41:50.150Z,40.6429
2023-04-28T06:42:50.185Z,39.8571
2023-04-28T06:43:50.223Z,39.8571
2023-04-28T06:44:50.263Z,39.5714
2023-04-28T06:45:50.360Z,38.5714
2023-04-28T06:46:50.381Z,37.4286
2023-04-28T06:47:50.389Z,37.5714
2023-04-28T06:48:50.412Z,37.2857
2023-04-28T06:49:50.444Z,35.7857
2023-04-28T06:50:50.500Z,36.2143
2023-04-28T06:51:50.532Z,35.0714
2023-04-28T06:52:50.568Z,34.2143
2023-04-28T06:53:50.616Z,33
2023-04-28T06:54:50.635Z,33.2143
2023-04-28T06:55:50.696Z,33.2143
2023-04-28T06:56:50.709Z,32
2023-04-28T06:57:50.745Z,31.3571
2023-04-28T06:58:50.782Z,31.5
2023-04-28T06:59:50.819Z,31.7857
2023-04-28T07:00:50.897Z,31.5714
2023-04-28T07:01:50.941Z,31.6429
2023-04-28T07:02:51.063Z,31
2023-04-28T07:03:51.025Z,31.2143
2023-04-28T07:04:50.998Z,31.0714
2023-04-28T07:05:51.154Z,31.6429
2023-04-28T07:06:51.261Z,30.1429
2023-04-28T07:07:51.110Z,30.1429
2023-04-28T07:08:51.151Z,29.9286
2023-04-28T07:09:51.195Z,30.0714
2023-04-28T07:10:51.226Z,30.2857
2023-04-28T07:11:51.273Z,30.7143
2023-04-28T07:12:51.301Z,30.9286
2023-04-28T07:13:51.349Z,29.8571
2023-04-28T07:14:51.377Z,29.6429
2023-04-28T07:15:51.418Z,30.0714
2023-04-28T07:16:51.567Z,29.5
2023-04-28T07:17:51.543Z,30.6429
2023-04-28T07:18:51.538Z,29.7143
2023-04-28T07:19:51.578Z,30.3571
2023-04-28T07:20:51.676Z,29.8571
2023-04-28T07:21:51.648Z,28.7857
2023-04-28T07:22:51.720Z,29.5714
2023-04-28T07:23:51.724Z,28.7143
2023-04-28T07:24:51.772Z,28.4286
2023-04-28T07:25:51.827Z,28.5714
2023-04-28T07:26:51.849Z,28.7857
2023-04-28T07:27:51.910Z,28.6429
2023-04-28T07:28:51.913Z,27.9286
2023-04-28T07:29:51.963Z,28.3571
2023-04-28T07:30:51.990Z,28.2143
2023-04-28T07:31:52.061Z,28.1429
2023-04-28T07:32:52.262Z,27.4286
2023-04-28T07:33:52.108Z,27.1429
2023-04-28T07:34:52.146Z,27.2143
2023-04-28T07:35:52.182Z,27.1429
2023-04-28T07:36:52.246Z,27
2023-04-28T07:37:52.273Z,26.1429
2023-04-28T07:38:52.284Z,26.7143
2023-04-28T07:39:52.327Z,26.1429
2023-04-28T07:41:52.398Z,26.5714
2023-04-28T07:42:52.463Z,26.8571
2023-04-28T07:43:52.475Z,27.4286
2023-04-28T07:44:52.512Z,27.5
2023-04-28T07:45:52.591Z,27.5
2023-04-28T07:46:52.581Z,28.5714
2023-04-28T07:47:52.696Z,27.2143
2023-04-28T07:48:52.661Z,26.3571
2023-04-28T07:49:52.727Z,26.3571
2023-04-28T07:50:52.737Z,26.3571
2023-04-28T07:51:52.762Z,26.6429
2023-04-28T07:52:52.806Z,27.1429
2023-04-28T07:53:52.844Z,27.5714
2023-04-28T07:54:52.921Z,27.5714
2023-04-28T07:55:52.917Z,27.4286
2023-04-28T07:56:52.958Z,26.5
2023-04-28T07:57:52.986Z,27.1429
2023-04-28T07:58:53.035Z,27.1429
2023-04-28T07:59:53.130Z,28.0714
2023-04-28T08:00:53.111Z,27.9286
2023-04-28T08:01:53.141Z,28.1429
2023-04-28T08:02:53.422Z,28.8571
2023-04-28T08:03:53.447Z,29.6429
2023-04-28T08:04:53.491Z,29.7143
2023-04-28T08:05:53.445Z,29.7857
2023-04-28T08:06:53.326Z,30
2023-04-28T08:07:53.367Z,30.0714
2023-04-28T08:08:53.414Z,30.2143
2023-04-28T08:09:53.970Z,29.8571
2023-04-28T08:10:53.472Z,29.1429
2023-04-28T08:11:53.518Z,29.7143
2023-04-28T08:12:53.550Z,29
2023-04-28T08:13:53.579Z,28.4286
2023-04-28T08:14:53.624Z,28.7143
2023-04-28T08:15:53.736Z,28.3571
2023-04-28T08:16:53.702Z,28.7143
2023-04-28T08:17:53.761Z,29.2857
2023-04-28T08:18:53.835Z,28.2857
2023-04-28T08:19:53.820Z,28.5
2023-04-28T08:20:53.870Z,29.0714
2023-04-28T08:21:53.897Z,28.9286
2023-04-28T08:22:53.918Z,28.5714
2023-04-28T08:23:53.996Z,28
2023-04-28T08:24:54.001Z,27.4286
2023-04-28T08:25:54.037Z,27.4286
2023-04-28T08:26:54.132Z,28.2143
2023-04-28T08:27:55.880Z,29.1429
2023-04-28T08:28:54.170Z,28.2143
2023-04-28T08:29:54.187Z,27.8571
2023-04-28T08:30:54.272Z,27.6429
2023-04-28T08:31:54.339Z,28.4286
2023-04-28T08:32:54.451Z,28.1429
2023-04-28T08:33:55.566Z,27.8571
2023-04-28T08:34:54.387Z,28.3571
2023-04-28T08:35:54.419Z,28.6429
2023-04-28T08:36:54.452Z,29
2023-04-28T08:37:54.497Z,30
2023-04-28T08:38:54.534Z,29.0714
2023-04-28T08:39:54.581Z,28.8571
2023-04-28T08:40:54.614Z,28.5714
2023-04-28T08:41:54.670Z,29.5714
2023-04-28T08:42:54.682Z,29.0714
2023-04-28T08:43:54.721Z,29.4286
2023-04-28T08:44:54.766Z,30.5714
2023-04-28T08:45:54.814Z,28.5
2023-04-28T08:46:54.929Z,28.2143
2023-04-28T08:47:54.944Z,28
2023-04-28T08:48:54.907Z,27.5714
2023-04-28T08:49:54.946Z,28.4286
2023-04-28T08:50:55.096Z,27.7857
2023-04-28T08:51:55.031Z,28.1429
2023-04-28T08:52:55.053Z,29.2143
2023-04-28T08:54:55.139Z,29.0714
2023-04-28T08:55:55.182Z,29.3571
2023-04-28T08:56:55.205Z,29.7143
2023-04-28T08:57:55.273Z,30.2857
2023-04-28T08:58:55.333Z,29.5714
2023-04-28T08:59:55.312Z,29.3571
2023-04-28T09:00:55.350Z,30.2857
2023-04-28T09:01:55.442Z,29.3571
2023-04-28T09:02:55.591Z,28.7857
2023-04-28T09:03:55.638Z,29.3571
2023-04-28T09:04:55.877Z,29.3571
2023-04-28T09:05:55.555Z,29.7857
2023-04-28T09:06:55.586Z,30.4286
2023-04-28T09:07:55.638Z,30.1429
2023-04-28T09:08:55.661Z,31.5
2023-04-28T09:09:55.705Z,31.1429
2023-04-28T09:10:55.741Z,31.7857
2023-04-28T09:11:55.780Z,30.8571
2023-04-28T09:12:55.827Z,31.2143
2023-04-28T09:13:55.856Z,30.1429
2023-04-28T09:14:55.897Z,30.7143
2023-04-28T09:15:55.928Z,31.3571
2023-04-28T09:16:56.103Z,31.6429
2023-04-28T09:17:56.060Z,31.6429
2023-04-28T09:18:56.056Z,30.6429
2023-04-28T09:19:56.101Z,31.6429
2023-04-28T09:20:56.134Z,32.0714
2023-04-28T09:21:56.221Z,31.7857
2023-04-28T09:22:56.247Z,31.1429
2023-04-28T09:23:56.265Z,31
2023-04-28T09:24:56.416Z,30.9286
2023-04-28T09:25:56.322Z,30.6429
2023-04-28T09:26:56.359Z,31.4286
2023-04-28T09:27:56.392Z,31.2143
2023-04-28T09:28:56.502Z,31.2857
2023-04-28T09:29:56.551Z,31.1429
2023-04-28T09:30:56.526Z,30.4286
2023-04-28T09:31:56.560Z,31.2143
2023-04-28T09:32:56.635Z,30.8571
2023-04-28T09:33:56.655Z,30.8571
2023-04-28T09:34:57.006Z,30.4286
2023-04-28T09:35:56.705Z,31.0714
2023-04-28T09:36:56.771Z,29.9286
2023-04-28T09:37:56.774Z,30.6429
2023-04-28T09:38:57.036Z,30.6429
2023-04-28T09:39:56.854Z,31
2023-04-28T09:40:56.881Z,31.6429
2023-04-28T09:41:56.918Z,31.3571
2023-04-28T09:42:56.947Z,31.8571
2023-04-28T09:43:56.985Z,33.0714
2023-04-28T09:44:57.013Z,32.5
2023-04-28T09:45:57.125Z,31.3571
2023-04-28T09:46:57.103Z,31.9286
2023-04-28T09:47:57.196Z,33.7857
2023-04-28T09:48:57.170Z,33.0714
2023-04-28T09:49:57.211Z,33.5714
2023-04-28T09:50:57.262Z,33.1429
2023-04-28T09:51:57.302Z,31.5714
2023-04-28T09:52:57.610Z,31.6429
2023-04-28T09:53:57.422Z,32
2023-04-28T09:54:57.426Z,31.8571
2023-04-28T09:55:57.467Z,32
2023-04-28T09:56:57.489Z,32.5
2023-04-28T09:57:57.552Z,32.2857
2023-04-28T09:58:57.588Z,31.7143
2023-04-28T09:59:57.616Z,33.3571
2023-04-28T10:00:57.728Z,32.7143
2023-04-28T10:01:57.703Z,34.2143
2023-04-28T10:02:57.905Z,32.3571
2023-04-28T10:03:57.920Z,32.9286
2023-04-28T10:04:57.970Z,32.4286
2023-04-28T10:05:57.879Z,32.7143
2023-04-28T10:06:57.881Z,33.8571
2023-04-28T10:07:57.913Z,33.2143
2023-04-28T10:08:58.086Z,32.3571
2023-04-28T10:09:57.983Z,32.2143
2023-04-28T10:10:58.047Z,32.4286
2023-04-28T10:11:58.077Z,33.6429
2023-04-28T10:12:58.107Z,32.7143
2023-04-28T10:13:58.143Z,32.8571
2023-04-28T10:14:58.201Z,34
2023-04-28T10:15:58.589Z,34
2023-04-28T10:16:58.295Z,33.5
2023-04-28T10:17:58.363Z,33.5
2023-04-28T10:18:58.342Z,33.9286
2023-04-28T10:19:58.377Z,33.1429
2023-04-28T10:20:58.417Z,32.9286
2023-04-28T10:21:58.464Z,33.2143
2023-04-28T10:22:58.493Z,32.5
2023-04-28T10:23:58.541Z,32.7857
2023-04-28T10:24:58.565Z,33.1429
2023-04-28T10:25:58.599Z,32.6429
2023-04-28T10:26:58.644Z,32.3571
2023-04-28T10:27:58.677Z,31.8571
2023-04-28T10:28:58.724Z,31.8571
2023-04-28T10:29:58.751Z,33.3571
2023-04-28T10:30:58.808Z,33.8571
2023-04-28T10:31:58.828Z,32.9286
2023-04-28T10:32:58.892Z,33.5714
2023-04-28T10:33:58.908Z,33.5714
2023-04-28T10:34:58.941Z,34
2023-04-28T10:35:58.989Z,33.7143
2023-04-28T10:36:59.014Z,34.0714
2023-04-28T10:37:59.050Z,33.0714
2023-04-28T10:38:59.089Z,31.7143
2023-04-28T10:39:59.141Z,31.6429
2023-04-28T10:40:59.163Z,32.7857
2023-04-28T10:41:59.208Z,33.7143
2023-04-28T10:42:59.266Z,33.2857
2023-04-28T10:43:59.278Z,32.7143
2023-04-28T10:44:59.309Z,33.2143
2023-04-28T10:45:59.380Z,32.7857
2023-04-28T10:46:59.580Z,32.4286
2023-04-28T10:47:59.475Z,33.9286
2023-04-28T10:48:59.469Z,31.7143
2023-04-28T10:49:59.513Z,32
2023-04-28T10:50:59.538Z,31.2857
2023-04-28T10:51:59.588Z,31.2857
2023-04-28T10:52:59.620Z,32.7857
2023-04-28T10:53:59.650Z,31.2857
2023-04-28T10:55:00.681Z,32.7857
2023-04-28T10:55:59.741Z,33.7143
2023-04-28T10:56:59.769Z,32.1429
2023-04-28T10:57:59.808Z,32.5
2023-04-28T10:58:59.847Z,31.2857
2023-04-28T10:59:59.896Z,33.5714
2023-04-28T11:00:59.929Z,33.3571
2023-04-28T11:01:59.988Z,30.9286
2023-04-28T11:03:00.186Z,31
2023-04-28T11:04:00.287Z,31.9286
2023-04-28T11:05:00.195Z,32.9286
2023-04-28T11:06:00.133Z,31.1429
2023-04-28T11:07:00.156Z,32.0714
2023-04-28T11:08:01.032Z,31.6429
2023-04-28T11:09:03.277Z,32.6429
2023-04-28T11:10:00.258Z,32.7857
2023-04-28T11:11:00.308Z,31.6429
2023-04-28T11:12:00.388Z,32.2143
2023-04-28T11:13:00.377Z,31.4286
2023-04-28T11:14:00.412Z,31.2143
2023-04-28T11:15:00.460Z,31.5714
2023-04-28T11:16:00.530Z,31.2143
2023-04-28T11:17:00.541Z,30.8571
2023-04-28T11:18:00.587Z,31.7857
2023-04-28T11:19:00.594Z,30.6429
2023-04-28T11:20:00.683Z,31.2857
2023-04-28T11:21:00.671Z,31
2023-04-28T11:22:00.704Z,30.5714
2023-04-28T11:23:00.729Z,31.2857
2023-04-28T11:24:00.783Z,31.4286
2023-04-28T11:25:00.818Z,30.3571
2023-04-28T11:26:00.845Z,30.2143
2023-04-28T11:27:00.888Z,31.2143
2023-04-28T11:28:00.922Z,30.5714
2023-04-28T11:29:00.959Z,30.8571
2023-04-28T11:30:00.994Z,31.2143
2023-04-28T11:31:01.033Z,31.4286
2023-04-28T11:32:01.162Z,31.2143
2023-04-28T11:33:01.161Z,30.7143
2023-04-28T11:34:01.145Z,31.0714
2023-04-28T11:35:01.212Z,30.9286
2023-04-28T11:36:01.225Z,31.7143
2023-04-28T11:37:01.259Z,31.3571
2023-04-28T11:38:01.294Z,31.3571
2023-04-28T11:39:01.359Z,31.4286
2023-04-28T11:40:01.371Z,30.7143
2023-04-28T11:41:01.406Z,31.7143
2023-04-28T11:42:01.445Z,31.7857
2023-04-28T11:43:02.058Z,32
2023-04-28T11:44:01.523Z,32.2143
2023-04-28T11:45:01.586Z,31.4286
2023-04-28T11:46:01.671Z,31.2857
2023-04-28T11:47:02.034Z,31.2143
2023-04-28T11:48:01.709Z,30.2857
2023-04-28T11:49:01.721Z,29.7857
2023-04-28T11:50:01.844Z,30.1429
2023-04-28T11:51:01.788Z,30.3571
2023-04-28T11:52:01.841Z,31.5714
2023-04-28T11:53:01.875Z,31.6429
2023-04-28T11:54:01.911Z,31.1429
2023-04-28T11:55:02.020Z,32
2023-04-28T11:56:02.011Z,32.0714
2023-04-28T11:57:02.059Z,31.5
2023-04-28T11:58:02.074Z,31.4286
2023-04-28T11:59:03.844Z,31.5
2023-04-28T12:00:02.127Z,32.5
2023-04-28T12:01:02.174Z,32.1429
2023-04-28T12:02:02.227Z,33.2143
2023-04-28T12:03:02.440Z,33.2857
2023-04-28T12:04:02.316Z,31.7143
2023-04-28T12:05:02.344Z,32.5714
2023-04-28T12:06:02.374Z,32.1429
2023-04-28T12:07:02.389Z,31.2857
2023-04-28T12:08:02.451Z,31.6429
2023-04-28T12:09:02.475Z,31.6429
2023-04-28T12:10:02.529Z,31.6429
2023-04-28T12:11:02.568Z,31.3571
2023-04-28T12:12:02.599Z,32.6429
2023-04-28T12:13:02.643Z,33.6429
2023-04-28T12:14:02.677Z,33.2143
2023-04-28T12:15:02.715Z,33.8571
2023-04-28T12:16:02.808Z,32.9286
2023-04-28T12:17:02.792Z,32.7857
2023-04-28T12:18:02.863Z,32.5714
2023-04-28T12:19:02.860Z,32
2023-04-28T12:20:02.917Z,32.2143
2023-04-28T12:21:02.929Z,31.5714